Time;durP1;ratioP1;P1;durP2;ratioP2;P2;SDS_P1;SDS_P2;PMS_P1;PMS_P2;Temp;Humidity;BMP_temperature;BMP_pressure;BME280_temperature;BME280_humidity;BME280_pressure;Samples;Min_cycle;Max_cycle;Signal;HPM_P1;HPM_P2
2021/06/05 00:01:44;;;;;;;13.57;8.00;;;;;;;19.79;94.11;101368.41;4992374;28;20037;-73
2021/06/05 00:04:11;;;;;;;12.68;8.85;;;;;;;19.90;94.12;101367.56;4999505;28;20054;-73
2021/06/05 00:06:37;;;;;;;11.02;8.20;;;;;;;19.70;94.76;101376.25;4991309;28;20030;-73
2021/06/05 00:09:05;;;;;;;9.93;8.32;;;;;;;19.76;94.69;101363.72;4983133;28;20031;-72
2021/06/05 00:11:30;;;;;;;15.60;7.70;;;;;;;19.76;94.66;101368.44;4993308;28;20418;-72
2021/06/05 00:14:00;;;;;;;10.80;7.80;;;;;;;19.86;93.76;101356.63;4990694;28;20125;-73
2021/06/05 00:16:32;;;;;;;13.77;8.35;;;;;;;19.98;93.42;101352.63;4992860;28;20034;-73
2021/06/05 00:18:57;;;;;;;11.45;8.55;;;;;;;19.98;92.94;101345.22;4984025;28;20034;-72
2021/06/05 00:21:25;;;;;;;14.88;8.10;;;;;;;19.90;93.20;101349.19;4990589;28;20030;-72
2021/06/05 00:23:52;;;;;;;9.18;8.05;;;;;;;19.88;93.32;101353.50;4991893;28;20042;-72
2021/06/05 00:26:18;;;;;;;12.40;8.48;;;;;;;19.89;93.33;101339.44;4987555;28;20117;-73
2021/06/05 00:28:44;;;;;;;10.35;7.82;;;;;;;19.79;93.26;101343.78;4992425;28;20030;-73
2021/06/05 00:31:09;;;;;;;9.57;7.72;;;;;;;19.90;92.37;101340.97;4991468;28;20045;-73
2021/06/05 00:33:36;;;;;;;10.07;7.82;;;;;;;19.86;92.87;101340.22;4990039;28;20026;-75
2021/06/05 00:36:04;;;;;;;15.50;7.80;;;;;;;19.78;92.50;101339.50;4992525;28;20049;-75
2021/06/05 00:38:29;;;;;;;10.93;7.57;;;;;;;19.98;91.17;101337.00;4992256;28;20406;-75
2021/06/05 00:40:57;;;;;;;15.68;8.40;;;;;;;19.85;91.27;101335.16;4986614;28;20038;-75
2021/06/05 00:43:28;;;;;;;11.60;7.82;;;;;;;19.94;91.09;101338.25;4985307;28;20026;-73
2021/06/05 00:45:53;;;;;;;9.82;7.78;;;;;;;20.06;90.11;101337.75;4986140;28;20022;-74
2021/06/05 00:48:22;;;;;;;9.63;8.00;;;;;;;20.10;89.96;101343.97;4991259;28;20034;-75
2021/06/05 00:50:55;;;;;;;11.55;7.38;;;;;;;19.80;90.84;101350.81;4986767;28;20026;-74
2021/06/05 00:53:26;;;;;;;13.65;8.13;;;;;;;19.52;92.94;101348.25;4984100;28;20039;-75
2021/06/05 00:55:56;;;;;;;9.18;7.82;;;;;;;19.40;93.45;101353.38;4990485;28;20121;-74
2021/06/05 00:58:24;;;;;;;10.15;7.80;;;;;;;19.54;93.55;101351.34;4990618;28;20127;-75
2021/06/05 01:00:54;;;;;;;12.82;8.52;;;;;;;19.48;93.07;101352.94;4985212;28;20030;-75
2021/06/05 01:03:21;;;;;;;9.63;7.80;;;;;;;19.37;94.05;101357.69;4991587;28;20482;-75
2021/06/05 01:05:51;;;;;;;9.88;7.85;;;;;;;19.14;94.28;101359.31;4979940;28;21137;-75
2021/06/05 01:08:20;;;;;;;11.73;7.88;;;;;;;18.98;96.22;101353.50;4990085;28;20054;-75
2021/06/05 01:10:52;;;;;;;10.27;8.10;;;;;;;19.16;94.65;101359.69;4989501;28;20050;-74
2021/06/05 01:13:48;;;;;;;11.73;8.07;;;;;;;19.05;94.91;101356.97;4986637;28;20034;-75
2021/06/05 01:16:17;;;;;;;10.73;7.82;;;;;;;19.10;94.83;101351.13;4986450;28;20042;-75
2021/06/05 01:18:50;;;;;;;12.00;8.18;;;;;;;19.31;93.82;101356.50;4991892;28;20096;-74
2021/06/05 01:21:32;;;;;;;10.45;8.30;;;;;;;19.30;93.14;101368.59;4988258;28;20034;-74
2021/06/05 01:24:01;;;;;;;10.05;7.53;;;;;;;19.00;95.13;101365.59;4986921;28;20034;-73
2021/06/05 01:26:51;;;;;;;8.80;7.57;;;;;;;18.89;95.96;101370.28;4986720;28;20037;-76
2021/06/05 01:29:24;;;;;;;9.80;7.88;;;;;;;18.95;94.99;101359.75;4988271;28;20507;-74
2021/06/05 01:31:55;;;;;;;11.80;8.18;;;;;;;18.92;95.66;101355.84;4999900;28;20038;-75
2021/06/05 01:34:31;;;;;;;11.10;7.65;;;;;;;18.91;95.99;101357.03;4985189;28;20131;-75
2021/06/05 01:37:01;;;;;;;10.60;8.25;;;;;;;19.13;95.10;101355.78;4989990;28;20026;-74
2021/06/05 01:39:31;;;;;;;9.82;7.97;;;;;;;18.89;96.07;101362.09;4988178;28;20125;-74
2021/06/05 01:42:02;;;;;;;10.38;8.25;;;;;;;18.73;96.89;101367.19;4985673;28;20115;-75
2021/06/05 01:44:33;;;;;;;9.63;8.02;;;;;;;18.87;95.61;101370.66;4988544;28;20034;-75
2021/06/05 01:47:00;;;;;;;;;;;;;;;18.66;96.43;101367.97;4978364;28;20546;-75
2021/06/05 01:49:26;;;;;;;8.80;7.75;;;;;;;18.73;96.19;101367.19;4988800;28;19925;-75
2021/06/05 01:52:04;;;;;;;9.63;7.90;;;;;;;18.63;96.51;101367.97;4991568;28;20105;-75
2021/06/05 01:54:40;;;;;;;13.02;8.95;;;;;;;18.72;96.10;101369.13;4972174;28;20031;-75
2021/06/05 01:57:10;;;;;;;11.00;8.35;;;;;;;18.52;96.71;101373.47;4984412;28;20026;-75
2021/06/05 01:59:56;;;;;;;10.27;8.27;;;;;;;18.49;97.61;101376.16;4975965;28;19924;-74
2021/06/05 02:02:28;;;;;;;9.60;7.93;;;;;;;18.66;96.44;101367.97;4988273;28;20613;-74
2021/06/05 02:04:57;;;;;;;10.90;8.70;;;;;;;18.69;96.13;101367.22;4987855;28;20901;-75
2021/06/05 02:07:24;;;;;;;9.30;8.35;;;;;;;18.84;95.67;101373.41;4972839;28;20125;-75
2021/06/05 02:09:51;;;;;;;13.95;9.05;;;;;;;18.85;95.44;101380.44;4990179;28;20070;-75
2021/06/05 02:12:34;;;;;;;9.57;8.38;;;;;;;18.69;95.72;101371.88;4986677;28;20499;-74
2021/06/05 02:15:11;;;;;;;11.75;8.73;;;;;;;18.63;96.51;101370.72;4985676;28;20033;-74
2021/06/05 02:17:41;;;;;;;11.50;8.13;;;;;;;18.49;97.45;101368.78;4983412;28;20034;-75
2021/06/05 02:20:19;;;;;;;9.70;8.70;;;;;;;18.52;97.17;101369.94;4980686;28;20135;-75
2021/06/05 02:22:56;;;;;;;10.48;8.32;;;;;;;18.42;97.71;101370.69;4985454;28;20041;-75
2021/06/05 02:25:24;;;;;;;11.30;8.85;;;;;;;18.46;97.40;101366.06;4988085;28;20026;-74
2021/06/05 02:27:55;;;;;;;10.85;8.60;;;;;;;18.50;97.21;101369.56;4987999;28;20035;-75
2021/06/05 02:30:24;;;;;;;12.10;8.88;;;;;;;18.39;97.84;101368.75;4988413;28;20030;-75
2021/06/05 02:32:52;;;;;;;13.43;8.77;;;;;;;18.21;98.18;101366.03;4985133;28;20038;-75
2021/06/05 02:35:41;;;;;;;13.05;8.40;;;;;;;18.22;98.39;101359.38;4993850;28;20034;-75
2021/06/05 02:38:34;;;;;;;9.43;7.50;;;;;;;18.59;97.16;101367.19;4994736;28;20039;-75
2021/06/05 02:41:05;;;;;;;11.25;9.05;;;;;;;18.48;97.12;101372.69;4988710;28;20035;-75
2021/06/05 02:43:35;;;;;;;12.00;8.85;;;;;;;18.41;97.90;101369.13;4992019;28;20438;-75
2021/06/05 02:46:20;;;;;;;10.43;8.65;;;;;;;18.34;97.43;101367.19;4991052;28;20045;-75
2021/06/05 02:48:56;;;;;;;11.52;8.73;;;;;;;18.64;96.29;101361.38;4992641;28;20038;-75
2021/06/05 02:51:33;;;;;;;12.52;9.55;;;;;;;18.46;96.33;101363.31;5001689;28;20038;-75
2021/06/05 02:54:00;;;;;;;14.63;9.10;;;;;;;18.49;96.97;101359.81;4994523;28;20114;-75
2021/06/05 02:56:26;;;;;;;13.75;9.38;;;;;;;18.63;96.14;101366.03;4992980;28;20030;-75
2021/06/05 02:58:54;;;;;;;12.27;8.38;;;;;;;18.66;95.83;101357.06;4989953;28;20389;-75
2021/06/05 03:01:24;;;;;;;12.60;8.13;;;;;;;18.63;95.11;101357.84;4989555;28;20030;-74
2021/06/05 03:03:50;;;;;;;11.07;8.43;;;;;;;18.73;95.04;101359.00;4993221;28;20058;-75
2021/06/05 03:06:16;;;;;;;11.13;8.52;;;;;;;18.75;94.18;101356.66;4987684;28;20061;-75
2021/06/05 03:08:43;;;;;;;14.35;8.50;;;;;;;18.80;94.44;101356.25;4995068;28;20030;-74
2021/06/05 03:11:13;;;;;;;11.18;8.45;;;;;;;18.85;93.23;101345.72;4992155;28;20022;-75
2021/06/05 03:13:40;;;;;;;10.85;8.80;;;;;;;18.85;93.42;101350.41;4989398;28;20041;-74
2021/06/05 03:16:07;;;;;;;12.63;8.55;;;;;;;18.89;92.89;101343.00;4993771;28;20030;-75
2021/06/05 03:18:38;;;;;;;12.00;8.95;;;;;;;19.09;91.58;101343.31;4985117;28;20040;-75
2021/06/05 03:21:10;;;;;;;14.25;8.80;;;;;;;18.91;92.34;101341.41;4987132;28;20040;-75
2021/06/05 03:23:37;;;;;;;12.05;8.15;;;;;;;19.01;91.61;101350.75;4986664;28;20510;-75
2021/06/05 03:26:08;;;;;;;9.88;8.32;;;;;;;18.96;92.03;101340.25;4992940;28;20098;-74
2021/06/05 03:28:36;;;;;;;10.75;8.13;;;;;;;19.07;91.33;101343.72;4994254;28;20034;-75
2021/06/05 03:31:05;;;;;;;11.70;8.73;;;;;;;19.00;91.01;101334.75;4991557;28;20049;-75
2021/06/05 03:33:32;;;;;;;15.60;8.63;;;;;;;19.02;90.98;101335.94;4989679;28;20030;-74
2021/06/05 03:36:02;;;;;;;12.13;9.17;;;;;;;19.01;90.12;101336.34;4993343;28;20506;-74
2021/06/05 03:38:28;;;;;;;11.77;8.13;;;;;;;18.77;91.32;101333.28;4993070;28;20503;-74
2021/06/05 03:40:56;;;;;;;11.30;8.32;;;;;;;18.72;91.67;101341.84;4985654;28;20026;-74
2021/06/05 03:43:22;;;;;;;9.65;8.18;;;;;;;18.77;91.75;101338.75;4987497;28;20030;-74
2021/06/05 03:45:48;;;;;;;10.80;8.65;;;;;;;18.71;91.60;101345.75;4988538;28;20228;-75
2021/06/05 03:48:15;;;;;;;16.00;8.95;;;;;;;18.86;90.83;101347.28;4990503;28;20022;-74
2021/06/05 03:50:44;;;;;;;12.68;8.82;;;;;;;18.87;90.42;101335.19;4992369;28;20109;-75
2021/06/05 03:53:13;;;;;;;13.13;8.27;;;;;;;18.60;91.36;101342.25;4991807;28;20038;-74
2021/06/05 03:55:40;;;;;;;13.68;8.90;;;;;;;18.53;92.03;101344.22;4990979;28;20038;-75
2021/06/05 03:58:07;;;;;;;11.25;7.90;;;;;;;18.64;91.75;101353.19;4992997;28;20031;-74
2021/06/05 04:00:36;;;;;;;13.25;7.85;;;;;;;18.76;90.82;101355.47;4988435;28;20026;-74
2021/06/05 04:03:03;;;;;;;10.90;8.98;;;;;;;18.64;91.32;101353.94;4988182;28;20041;-75
2021/06/05 04:05:29;;;;;;;11.50;8.32;;;;;;;18.76;90.86;101347.28;4977829;28;20025;-75
2021/06/05 04:07:54;;;;;;;10.25;8.10;;;;;;;18.59;91.78;101357.06;4991527;28;20030;-74
2021/06/05 04:10:22;;;;;;;12.35;8.93;;;;;;;18.48;92.51;101352.81;4990333;28;20054;-75
2021/06/05 04:12:49;;;;;;;11.52;8.55;;;;;;;18.34;93.59;101356.28;4987688;28;20503;-75
2021/06/05 04:15:16;;;;;;;12.15;7.95;;;;;;;18.38;94.09;101354.34;4989516;28;20407;-74
2021/06/05 04:17:41;;;;;;;11.63;8.20;;;;;;;18.55;93.48;101358.25;4992759;28;20038;-74
2021/06/05 04:20:11;;;;;;;9.45;8.20;;;;;;;18.37;93.59;101360.94;4988009;28;20054;-75
2021/06/05 04:22:37;;;;;;;14.30;8.40;;;;;;;18.81;91.80;101358.59;4983233;28;20050;-74
2021/06/05 04:25:03;;;;;;;11.30;8.45;;;;;;;18.69;91.23;101360.97;4991749;28;20065;-74
2021/06/05 04:27:28;;;;;;;11.23;7.93;;;;;;;18.82;91.00;101356.66;4992570;28;20026;-75
2021/06/05 04:29:54;;;;;;;10.30;8.32;;;;;;;18.92;90.37;101369.50;4991754;28;20096;-75
2021/06/05 04:32:20;;;;;;;12.35;8.05;;;;;;;18.94;89.84;101364.44;4986944;28;20439;-75
2021/06/05 04:34:45;;;;;;;9.98;7.60;;;;;;;19.02;89.86;101365.19;4992589;28;20030;-74
2021/06/05 04:37:11;;;;;;;13.32;8.20;;;;;;;18.99;90.92;101358.56;4992431;28;20101;-75
2021/06/05 04:39:37;;;;;;;9.82;7.85;;;;;;;19.13;90.29;101360.47;4991080;28;20034;-75
2021/06/05 04:42:04;;;;;;;12.18;8.57;;;;;;;19.28;88.88;101365.47;4988139;28;20104;-74
2021/06/05 04:44:30;;;;;;;9.98;8.27;;;;;;;19.18;88.31;101363.56;4982206;28;20042;-74
2021/06/05 04:46:55;;;;;;;10.30;7.82;;;;;;;19.26;88.05;101356.16;4987767;28;20026;-75
2021/06/05 04:49:21;;;;;;;8.43;7.22;;;;;;;19.18;88.97;101360.81;4991177;28;20053;-74
2021/06/05 04:51:46;;;;;;;9.30;7.57;;;;;;;19.37;87.41;101348.72;4991489;28;20080;-75
2021/06/05 04:54:12;;;;;;;12.38;7.75;;;;;;;19.53;86.97;101354.50;4990693;28;20054;-74
2021/06/05 04:56:41;;;;;;;8.88;7.70;;;;;;;19.62;86.61;101354.81;4986708;28;20048;-75
2021/06/05 04:59:08;;;;;;;11.88;7.78;;;;;;;19.79;86.07;101351.22;5015733;23;20148;-73
2021/06/05 05:01:34;;;;;;;11.48;7.90;;;;;;;19.73;85.37;101342.66;4982914;28;20041;-73
2021/06/05 05:04:00;;;;;;;8.50;7.57;;;;;;;19.90;84.99;101351.16;4991524;28;20049;-74
2021/06/05 05:06:26;;;;;;;10.68;8.10;;;;;;;19.96;84.94;101355.78;4989883;28;20105;-73
2021/06/05 05:08:53;;;;;;;8.43;7.20;;;;;;;20.08;84.53;101354.53;4986914;28;20147;-74
2021/06/05 05:11:18;;;;;;;11.13;7.57;;;;;;;20.32;84.65;101356.34;4972345;28;20043;-74
2021/06/05 05:13:45;;;;;;;9.52;7.13;;;;;;;20.72;82.50;101350.09;4972097;28;20531;-74
2021/06/05 05:16:10;;;;;;;9.43;6.88;;;;;;;21.19;79.53;101341.00;4973079;28;20030;-74
2021/06/05 05:18:38;;;;;;;10.18;6.68;;;;;;;21.72;77.98;101354.00;4954291;28;20411;-74
2021/06/05 05:21:05;;;;;;;8.00;6.68;;;;;;;22.15;75.86;101354.97;4963743;28;20043;-74
2021/06/05 05:23:33;;;;;;;9.40;6.60;;;;;;;22.11;73.89;101350.72;4966926;28;20093;-74
2021/06/05 05:26:01;;;;;;;7.82;6.63;;;;;;;22.39;74.69;101348.28;4972551;28;20122;-74
2021/06/05 05:28:28;;;;;;;8.23;6.05;;;;;;;22.68;73.83;101347.81;4971194;28;20037;-74
2021/06/05 05:30:55;;;;;;;10.13;6.18;;;;;;;22.95;71.97;101352.00;4970759;28;20038;-75
2021/06/05 05:33:22;;;;;;;8.88;6.05;;;;;;;22.97;69.68;101346.88;4973285;28;20035;-75
2021/06/05 05:35:48;;;;;;;6.93;5.32;;;;;;;22.94;70.71;101349.66;4969278;28;20039;-75
2021/06/05 05:38:15;;;;;;;7.85;5.90;;;;;;;23.21;71.82;101353.06;4954382;28;20112;-74
2021/06/05 05:40:42;;;;;;;10.55;6.40;;;;;;;23.54;69.95;101349.25;4971687;28;20065;-74
2021/06/05 05:43:08;;;;;;;9.05;6.00;;;;;;;23.63;69.03;101348.66;4966462;28;20030;-75
2021/06/05 05:45:34;;;;;;;9.35;6.20;;;;;;;23.83;67.56;101355.66;4969622;28;20377;-75
2021/06/05 05:48:01;;;;;;;6.25;5.50;;;;;;;24.02;66.48;101354.84;4969725;28;20022;-74
2021/06/05 05:50:30;;;;;;;6.57;5.70;;;;;;;24.14;68.29;101365.19;4960465;28;20476;-75
2021/06/05 05:52:56;;;;;;;7.57;6.20;;;;;;;24.46;66.18;101364.41;4954444;28;20059;-74
2021/06/05 05:55:21;;;;;;;6.20;5.60;;;;;;;24.36;65.83;101362.69;4971907;28;20066;-75
2021/06/05 05:57:48;;;;;;;6.50;5.82;;;;;;;24.15;65.44;101357.72;4971916;28;20051;-75
2021/06/05 06:00:18;;;;;;;9.30;6.55;;;;;;;24.34;63.61;101354.09;4970109;28;20272;-74
2021/06/05 06:02:45;;;;;;;10.02;6.00;;;;;;;24.25;65.68;101361.41;4971397;28;20573;-74
2021/06/05 06:05:11;;;;;;;7.45;5.80;;;;;;;24.33;64.93;101369.03;4973023;28;20038;-74
2021/06/05 06:07:37;;;;;;;11.25;5.95;;;;;;;24.33;64.47;101371.78;4968431;28;20510;-74
2021/06/05 06:10:05;;;;;;;6.55;5.80;;;;;;;24.40;65.80;101365.34;4970566;28;20105;-74
2021/06/05 06:12:31;;;;;;;7.95;6.20;;;;;;;24.43;65.57;101368.00;4971767;28;20041;-74
2021/06/05 06:14:56;;;;;;;7.35;5.47;;;;;;;24.50;65.83;101364.31;4969068;28;20038;-75
2021/06/05 06:17:22;;;;;;;8.73;5.85;;;;;;;24.71;64.97;101361.78;4971444;28;20038;-75
2021/06/05 06:19:47;;;;;;;6.30;5.43;;;;;;;24.82;64.95;101365.06;4968847;28;20034;-75
2021/06/05 06:22:13;;;;;;;7.55;5.72;;;;;;;24.62;63.22;101367.13;4968389;28;20027;-75
2021/06/05 06:24:38;;;;;;;8.77;5.85;;;;;;;24.92;64.25;101357.69;4967121;28;20110;-75
2021/06/05 06:27:04;;;;;;;8.80;6.15;;;;;;;25.04;64.92;101352.25;4965442;28;20093;-75
2021/06/05 06:29:31;;;;;;;7.30;5.40;;;;;;;25.15;63.22;101359.41;4965150;28;20039;-75
2021/06/05 06:31:58;;;;;;;8.52;5.30;;;;;;;25.22;63.78;101359.22;4957686;28;20055;-73
2021/06/05 06:34:26;;;;;;;6.72;5.05;;;;;;;25.33;63.33;101352.19;4962238;28;20043;-73
2021/06/05 06:36:58;;;;;;;10.32;5.38;;;;;;;25.44;63.01;101351.91;4962574;28;20043;-73
2021/06/05 06:39:24;;;;;;;6.43;5.22;;;;;;;25.33;60.98;101352.19;4965648;28;20039;-73
2021/06/05 06:41:49;;;;;;;12.48;5.28;;;;;;;25.65;63.80;101351.25;4964613;28;20070;-73
2021/06/05 06:44:15;;;;;;;9.88;5.60;;;;;;;25.83;60.63;101354.25;4968358;28;20110;-73
2021/06/05 06:46:45;;;;;;;11.13;5.20;;;;;;;25.89;59.38;101346.97;4948759;29;20506;-73
2021/06/05 06:49:12;;;;;;;8.43;5.35;;;;;;;25.19;58.95;101360.09;4969072;28;20039;-73
2021/06/05 06:51:39;;;;;;;6.85;4.70;;;;;;;25.64;60.83;101361.53;4966601;28;20082;-73
2021/06/05 06:54:06;;;;;;;6.50;5.22;;;;;;;25.92;60.45;101357.09;4969850;28;20498;-73
2021/06/05 06:56:32;;;;;;;7.78;4.88;;;;;;;26.15;59.17;101358.81;4964614;28;20049;-73
2021/06/05 06:58:58;;;;;;;8.98;5.15;;;;;;;26.28;58.46;101351.25;4958927;28;20036;-73
2021/06/05 07:01:24;;;;;;;6.80;4.90;;;;;;;26.46;59.82;101352.19;4965630;28;20113;-73
2021/06/05 07:03:50;;;;;;;7.13;4.50;;;;;;;26.52;59.49;101347.66;4964843;28;20494;-74
2021/06/05 07:06:16;;;;;;;8.98;4.60;;;;;;;26.53;59.40;101354.72;4967463;28;20121;-73
2021/06/05 07:08:43;;;;;;;5.75;4.65;;;;;;;26.38;58.09;101353.69;4970330;28;20023;-74
2021/06/05 07:11:24;;;;;;;6.95;4.65;;;;;;;26.84;57.53;101340.25;4953999;28;20149;-74
2021/06/05 07:13:50;;;;;;;7.10;4.65;;;;;;;26.98;56.62;101348.06;4971046;28;20492;-74
2021/06/05 07:16:17;;;;;;;5.45;4.38;;;;;;;27.14;55.44;101339.56;4971449;28;20030;-74
2021/06/05 07:18:43;;;;;;;9.18;4.25;;;;;;;27.13;55.10;101352.63;4963568;28;20050;-75
2021/06/05 07:21:10;;;;;;;5.80;4.93;;;;;;;27.18;55.87;101345.72;4960600;28;20062;-73
2021/06/05 07:23:37;;;;;;;4.50;3.90;;;;;;;26.98;53.42;101346.06;4961082;28;20034;-73
2021/06/05 07:26:06;;;;;;;6.55;4.20;;;;;;;27.21;53.09;101344.81;4940447;28;20041;-73
2021/06/05 07:28:38;;;;;;;4.82;4.05;;;;;;;27.23;55.02;101340.38;4966125;28;20050;-74
2021/06/05 07:31:08;;;;;;;5.90;4.35;;;;;;;27.23;53.05;101339.59;4968841;28;20054;-73
2021/06/05 07:33:36;;;;;;;5.78;4.20;;;;;;;27.44;53.58;101342.38;4974174;28;20039;-75
2021/06/05 07:36:05;;;;;;;12.07;3.80;;;;;;;27.66;52.35;101340.31;4963686;28;20555;-74
2021/06/05 07:38:31;;;;;;;7.35;4.38;;;;;;;27.66;52.00;101353.41;4966683;28;20080;-75
2021/06/05 07:40:58;;;;;;;6.22;3.78;;;;;;;27.82;51.51;101344.84;4968927;28;20466;-75
2021/06/05 07:43:27;;;;;;;6.82;4.00;;;;;;;27.91;51.35;101346.88;4966726;28;20122;-75
2021/06/05 07:45:55;;;;;;;10.65;3.90;;;;;;;28.07;51.99;101349.41;4947227;28;20035;-74
2021/06/05 07:48:21;;;;;;;7.82;3.70;;;;;;;27.69;50.46;101344.19;4948469;28;20492;-74
2021/06/05 07:50:47;;;;;;;8.40;4.00;;;;;;;27.88;50.57;101331.94;4968969;28;20819;-75
2021/06/05 07:53:13;;;;;;;5.82;3.53;;;;;;;28.14;51.07;101336.03;4969107;28;20039;-75
2021/06/05 07:55:39;;;;;;;3.97;3.67;;;;;;;28.19;49.73;101343.75;4973869;28;20089;-75
2021/06/05 07:58:06;;;;;;;4.90;3.92;;;;;;;28.39;50.01;101338.53;4972785;28;20089;-74
2021/06/05 08:00:34;;;;;;;6.70;3.63;;;;;;;28.55;48.67;101337.50;4963366;28;20410;-73
2021/06/05 08:03:00;;;;;;;6.65;3.58;;;;;;;28.77;48.44;101338.13;4950406;28;20031;-74
2021/06/05 08:05:26;;;;;;;4.95;3.70;;;;;;;28.74;48.72;101335.50;4943310;28;20592;-73
2021/06/05 08:07:52;;;;;;;6.22;3.90;;;;;;;28.93;48.40;101343.34;4969406;28;20045;-73
2021/06/05 08:10:19;;;;;;;6.20;3.80;;;;;;;28.87;47.88;101345.19;4966067;28;20023;-74
2021/06/05 08:12:46;;;;;;;4.15;3.75;;;;;;;28.89;46.81;101341.97;4971220;28;20109;-73
2021/06/05 08:15:16;;;;;;;3.95;3.55;;;;;;;29.10;48.23;101344.56;4970064;28;20387;-73
2021/06/05 08:17:42;;;;;;;19.73;3.67;;;;;;;29.02;47.81;101345.31;4963016;28;20035;-73
2021/06/05 08:20:11;;;;;;;5.55;3.45;;;;;;;29.24;49.46;101338.38;4960337;28;20041;-73
2021/06/05 08:22:37;;;;;;;6.65;3.75;;;;;;;29.37;47.28;101338.97;4945889;28;20571;-74
2021/06/05 08:25:06;;;;;;;7.30;4.00;;;;;;;29.35;46.78;101335.88;4960069;28;20061;-73
2021/06/05 08:27:32;;;;;;;5.88;3.67;;;;;;;29.53;47.29;101335.06;4962233;28;20503;-74
2021/06/05 08:29:58;;;;;;;6.25;4.07;;;;;;;29.65;46.28;101336.88;4966428;28;20606;-73
2021/06/05 08:32:24;;;;;;;5.22;3.42;;;;;;;29.73;46.86;101326.97;4963258;28;20046;-74
2021/06/05 08:34:50;;;;;;;4.63;3.72;;;;;;;29.82;47.06;101334.50;4961513;28;20034;-73
2021/06/05 08:37:16;;;;;;;7.30;3.40;;;;;;;30.10;46.13;101331.06;4968171;28;20026;-76
2021/06/05 08:39:41;;;;;;;4.25;3.85;;;;;;;29.91;45.51;101343.53;4963424;28;20373;-74
2021/06/05 08:42:11;;;;;;;11.85;3.70;;;;;;;29.68;45.72;101332.34;4967037;28;20039;-74
2021/06/05 08:44:41;;;;;;;5.07;3.70;;;;;;;29.58;45.20;101334.41;4971678;28;20030;-75
2021/06/05 08:47:18;;;;;;;6.10;3.88;;;;;;;29.70;44.56;101341.00;4965507;28;20484;-76
2021/06/05 08:49:45;;;;;;;7.82;3.88;;;;;;;29.82;45.67;101324.16;4972298;28;20126;-74
2021/06/05 08:52:17;;;;;;;4.57;3.85;;;;;;;29.36;46.53;101336.66;4970923;28;20121;-75
2021/06/05 08:55:01;;;;;;;5.15;3.80;;;;;;;29.64;45.86;101332.53;4969462;28;20093;-74
2021/06/05 08:57:49;;;;;;;5.32;4.20;;;;;;;29.89;45.62;101329.34;4964512;28;20395;-76
2021/06/05 09:00:20;;;;;;;4.55;3.67;;;;;;;30.17;46.60;101327.97;4961851;28;20038;-75
2021/06/05 09:02:49;;;;;;;4.10;3.63;;;;;;;30.14;45.16;101326.13;4966724;28;20041;-75
2021/06/05 09:05:19;;;;;;;5.20;3.83;;;;;;;30.38;46.41;101328.13;4970521;28;20034;-76
2021/06/05 09:07:46;;;;;;;6.78;3.38;;;;;;;30.60;46.66;101329.38;4962114;28;20050;-76
2021/06/05 09:10:14;;;;;;;6.47;3.55;;;;;;;30.84;47.10;101326.53;4969990;28;20573;-76
2021/06/05 09:12:40;;;;;;;6.15;3.45;;;;;;;30.99;45.53;101330.13;4967371;28;20567;-76
2021/06/05 09:15:06;;;;;;;6.32;3.92;;;;;;;30.73;44.27;101329.88;4956144;28;20071;-75
2021/06/05 09:17:35;;;;;;;5.85;3.65;;;;;;;30.73;45.79;101321.53;4965169;28;20039;-75
2021/06/05 09:20:13;;;;;;;4.18;3.28;;;;;;;30.88;44.88;101327.13;4966045;28;20089;-75
2021/06/05 09:22:44;;;;;;;8.55;3.63;;;;;;;30.92;45.59;101327.69;4971914;28;20033;-76
2021/06/05 09:25:26;;;;;;;5.43;3.40;;;;;;;31.01;45.25;101320.03;4964124;28;20045;-75
2021/06/05 09:27:52;;;;;;;7.00;3.50;;;;;;;31.08;44.56;101310.53;4968343;28;20202;-75
2021/06/05 09:30:34;;;;;;;5.25;3.83;;;;;;;31.30;44.91;101310.13;4971192;28;20128;-74
2021/06/05 09:33:10;;;;;;;3.83;3.53;;;;;;;31.44;43.98;101318.50;4966443;28;20039;-75
2021/06/05 09:35:43;;;;;;;4.50;3.70;;;;;;;31.21;42.27;101319.34;4966384;28;20031;-75
2021/06/05 09:38:33;;;;;;;5.47;3.65;;;;;;;31.55;42.48;101307.50;4972375;28;20030;-79
2021/06/05 09:41:11;;;;;;;5.10;3.47;;;;;;;31.76;42.79;101308.34;4963541;28;20121;-74
2021/06/05 09:43:38;;;;;;;8.88;4.00;;;;;;;31.98;43.93;101306.66;4962665;28;20407;-75
2021/06/05 09:46:31;;;;;;;6.45;3.53;;;;;;;31.86;42.60;101318.13;4968635;28;20443;-74
2021/06/05 09:49:24;;;;;;;3.63;3.30;;;;;;;31.55;40.92;101313.09;4959382;28;20455;-75
2021/06/05 09:51:59;;;;;;;4.35;3.38;;;;;;;31.58;41.92;101312.13;4962763;28;20096;-75
2021/06/05 09:54:34;;;;;;;6.28;3.42;;;;;;;31.62;42.46;101309.16;4969496;28;20062;-75
2021/06/05 09:57:23;;;;;;;4.68;3.13;;;;;;;31.53;41.57;101315.63;4966922;28;20034;-75
2021/06/05 10:00:15;;;;;;;3.50;3.20;;;;;;;31.59;42.04;101312.91;4953715;28;21400;-76
2021/06/05 10:02:46;;;;;;;4.53;3.58;;;;;;;31.69;42.64;101312.28;4943029;28;20043;-75
2021/06/05 10:05:28;;;;;;;5.95;3.53;;;;;;;31.91;42.05;101315.44;4960743;28;20038;-75
2021/06/05 10:08:00;;;;;;;9.25;3.38;;;;;;;31.53;41.90;101306.47;4963451;28;20034;-75
2021/06/05 10:10:32;;;;;;;4.28;3.50;;;;;;;31.51;41.63;101304.19;4966606;28;20556;-75
2021/06/05 10:13:01;;;;;;;3.60;3.00;;;;;;;31.50;42.03;101302.63;4966872;28;20108;-75
2021/06/05 10:15:46;;;;;;;5.97;3.30;;;;;;;31.43;41.86;101303.03;4970718;28;20039;-76
2021/06/05 10:18:16;;;;;;;5.40;3.20;;;;;;;31.58;43.59;101301.00;4965751;28;20069;-76
2021/06/05 10:20:57;;;;;;;5.63;3.88;;;;;;;31.68;42.92;101296.06;4970824;28;20472;-76
2021/06/05 10:23:45;;;;;;;4.18;3.58;;;;;;;31.87;42.25;101303.69;4972224;28;20066;-75
2021/06/05 10:26:21;;;;;;;5.13;3.10;;;;;;;32.05;42.87;101302.69;4970509;28;20097;-75
2021/06/05 10:28:52;;;;;;;4.07;3.30;;;;;;;32.31;41.98;101297.94;4971826;28;20039;-76
2021/06/05 10:31:20;;;;;;;5.57;3.47;;;;;;;32.46;41.05;101300.69;4971077;28;20045;-76
2021/06/05 10:33:51;;;;;;;4.40;3.17;;;;;;;32.68;42.85;101298.09;4972010;28;20045;-75
2021/06/05 10:36:37;;;;;;;3.35;3.05;;;;;;;32.80;40.76;101296.97;4971073;28;20035;-75
2021/06/05 10:39:09;;;;;;;7.68;2.97;;;;;;;32.88;39.96;101292.47;4960348;28;20043;-76
2021/06/05 10:41:45;;;;;;;3.70;3.40;;;;;;;32.91;39.60;101287.94;4960546;28;20036;-76
2021/06/05 10:44:11;;;;;;;4.63;2.95;;;;;;;32.76;39.70;101282.47;4957925;28;20039;-76
2021/06/05 10:47:00;;;;;;;6.72;3.15;;;;;;;32.81;39.33;101279.72;4963989;28;20031;-76
2021/06/05 10:49:28;;;;;;;7.28;3.03;;;;;;;32.65;40.29;101282.34;4968144;28;20069;-75
2021/06/05 10:52:25;;;;;;;6.82;3.20;;;;;;;32.88;39.85;101286.13;4953810;28;20037;-75
2021/06/05 10:54:55;;;;;;;4.78;3.10;;;;;;;33.20;39.73;101282.88;4915998;28;20414;-75
2021/06/05 10:57:23;;;;;;;3.30;2.80;;;;;;;33.22;38.38;101277.56;4975623;28;20035;-75
2021/06/05 11:02:42;;;;;;;3.38;2.80;;;;;;;33.31;37.76;101271.78;4987586;28;20046;-73
2021/06/05 11:05:17;;;;;;;4.95;3.00;;;;;;;33.53;39.63;101265.59;4992026;28;20034;-73
2021/06/05 11:07:45;;;;;;;4.00;2.90;;;;;;;33.46;37.77;101261.22;4990153;28;20041;-73
2021/06/05 11:10:32;;;;;;;3.65;3.13;;;;;;;32.98;39.43;101262.38;4980063;28;20045;-74
2021/06/05 11:12:57;;;;;;;4.63;2.80;;;;;;;33.41;40.41;101258.41;4980721;28;20077;-75
2021/06/05 11:15:57;;;;;;;5.47;3.20;;;;;;;33.40;38.42;101252.03;4992939;28;20490;-75
2021/06/05 11:18:27;;;;;;;4.27;3.00;;;;;;;33.30;38.56;101249.91;4980971;28;20046;-74
2021/06/05 11:20:53;;;;;;;3.97;2.60;;;;;;;33.30;38.30;101250.69;4980077;28;20399;-74
2021/06/05 11:23:21;;;;;;;2.88;2.55;;;;;;;33.54;37.93;101251.13;4986949;28;20300;-74
2021/06/05 11:25:50;;;;;;;4.97;2.85;;;;;;;32.93;38.57;101261.03;4989575;28;20038;-74
2021/06/05 11:28:20;;;;;;;4.78;2.92;;;;;;;32.75;39.97;101253.03;4989406;28;20398;-74
2021/06/05 11:30:45;;;;;;;6.00;3.00;;;;;;;32.73;39.05;101253.50;4978829;28;20082;-74
2021/06/05 11:33:31;;;;;;;3.70;2.90;;;;;;;32.55;39.90;101253.84;4991013;28;20046;-74
2021/06/05 11:35:59;;;;;;;4.50;2.92;;;;;;;32.77;40.66;101242.13;4994025;28;20038;-74
2021/06/05 11:38:25;;;;;;;5.75;2.90;;;;;;;32.90;40.25;101236.91;4989637;28;20038;-76